sensor_id;sensor_type;location;lat;lon;timestamp;P1;durP1;ratioP1;P2;durP2;ratioP2
3141;SDS011;1581;51.568;6.998;2024-02-26T00:00:45;1.57;;;1.47;;
3141;SDS011;1581;51.568;6.998;2024-02-26T00:03:12;4.07;;;1.87;;
3141;SDS011;1581;51.568;6.998;2024-02-26T00:05:39;2.40;;;1.60;;
3141;SDS011;1581;51.568;6.998;2024-02-26T00:08:06;2.10;;;1.60;;
3141;SDS011;1581;51.568;6.998;2024-02-26T00:10:33;2.20;;;2.00;;
3141;SDS011;1581;51.568;6.998;2024-02-26T00:13:01;3.33;;;2.07;;
3141;SDS011;1581;51.568;6.998;2024-02-26T00:15:29;1.73;;;1.63;;
3141;SDS011;1581;51.568;6.998;2024-02-26T00:17:56;3.37;;;1.63;;
3141;SDS011;1581;51.568;6.998;2024-02-26T00:20:23;1.97;;;1.77;;
3141;SDS011;1581;51.568;6.998;2024-02-26T00:22:50;1.63;;;1.50;;
3141;SDS011;1581;51.568;6.998;2024-02-26T00:25:18;1.77;;;1.60;;
3141;SDS011;1581;51.568;6.998;2024-02-26T00:27:45;2.03;;;1.83;;
3141;SDS011;1581;51.568;6.998;2024-02-26T00:30:12;2.10;;;1.57;;
3141;SDS011;1581;51.568;6.998;2024-02-26T00:32:41;2.10;;;1.43;;
3141;SDS011;1581;51.568;6.998;2024-02-26T00:35:08;1.47;;;1.37;;
3141;SDS011;1581;51.568;6.998;2024-02-26T00:37:35;12.23;;;1.70;;
3141;SDS011;1581;51.568;6.998;2024-02-26T00:40:02;1.83;;;1.57;;
3141;SDS011;1581;51.568;6.998;2024-02-26T00:42:31;4.83;;;2.20;;
3141;SDS011;1581;51.568;6.998;2024-02-26T00:44:58;1.50;;;1.40;;
3141;SDS011;1581;51.568;6.998;2024-02-26T00:47:25;2.00;;;1.80;;
3141;SDS011;1581;51.568;6.998;2024-02-26T00:49:53;2.93;;;1.60;;
3141;SDS011;1581;51.568;6.998;2024-02-26T00:52:21;2.07;;;1.90;;
3141;SDS011;1581;51.568;6.998;2024-02-26T00:54:48;2.00;;;1.80;;
3141;SDS011;1581;51.568;6.998;2024-02-26T00:57:17;2.33;;;2.10;;
3141;SDS011;1581;51.568;6.998;2024-02-26T00:59:44;3.60;;;1.77;;
3141;SDS011;1581;51.568;6.998;2024-02-26T01:02:11;1.83;;;1.43;;
3141;SDS011;1581;51.568;6.998;2024-02-26T01:04:38;3.50;;;1.83;;
3141;SDS011;1581;51.568;6.998;2024-02-26T01:07:06;2.13;;;1.60;;
3141;SDS011;1581;51.568;6.998;2024-02-26T01:09:33;2.30;;;1.93;;
3141;SDS011;1581;51.568;6.998;2024-02-26T01:12:00;2.13;;;1.97;;
3141;SDS011;1581;51.568;6.998;2024-02-26T01:14:27;4.03;;;1.60;;
3141;SDS011;1581;51.568;6.998;2024-02-26T01:16:54;1.60;;;1.43;;
3141;SDS011;1581;51.568;6.998;2024-02-26T01:19:21;3.67;;;1.60;;
3141;SDS011;1581;51.568;6.998;2024-02-26T01:21:48;2.10;;;1.60;;
3141;SDS011;1581;51.568;6.998;2024-02-26T01:24:17;3.43;;;1.80;;
3141;SDS011;1581;51.568;6.998;2024-02-26T01:26:44;4.20;;;1.97;;
3141;SDS011;1581;51.568;6.998;2024-02-26T01:29:11;2.20;;;1.33;;
3141;SDS011;1581;51.568;6.998;2024-02-26T01:31:38;2.70;;;1.50;;
3141;SDS011;1581;51.568;6.998;2024-02-26T01:34:05;2.40;;;1.60;;
3141;SDS011;1581;51.568;6.998;2024-02-26T01:36:32;1.33;;;1.23;;
3141;SDS011;1581;51.568;6.998;2024-02-26T01:38:59;3.13;;;1.97;;
3141;SDS011;1581;51.568;6.998;2024-02-26T01:41:29;3.70;;;2.00;;
3141;SDS011;1581;51.568;6.998;2024-02-26T01:43:57;3.10;;;1.70;;
3141;SDS011;1581;51.568;6.998;2024-02-26T01:46:24;1.30;;;1.20;;
3141;SDS011;1581;51.568;6.998;2024-02-26T01:48:51;1.70;;;1.60;;
3141;SDS011;1581;51.568;6.998;2024-02-26T01:51:18;1.80;;;1.60;;
3141;SDS011;1581;51.568;6.998;2024-02-26T01:53:46;1.60;;;1.50;;
3141;SDS011;1581;51.568;6.998;2024-02-26T01:56:13;2.40;;;1.67;;
3141;SDS011;1581;51.568;6.998;2024-02-26T01:58:44;1.30;;;1.20;;
3141;SDS011;1581;51.568;6.998;2024-02-26T02:01:12;1.73;;;1.63;;
3141;SDS011;1581;51.568;6.998;2024-02-26T02:03:41;1.47;;;1.33;;
3141;SDS011;1581;51.568;6.998;2024-02-26T02:06:10;2.10;;;1.40;;
3141;SDS011;1581;51.568;6.998;2024-02-26T02:08:38;2.10;;;1.23;;
3141;SDS011;1581;51.568;6.998;2024-02-26T02:11:05;3.27;;;1.53;;
3141;SDS011;1581;51.568;6.998;2024-02-26T02:13:36;2.03;;;1.83;;
3141;SDS011;1581;51.568;6.998;2024-02-26T02:16:05;2.00;;;1.37;;
3141;SDS011;1581;51.568;6.998;2024-02-26T02:18:32;2.53;;;1.60;;
3141;SDS011;1581;51.568;6.998;2024-02-26T02:21:01;1.73;;;1.07;;
3141;SDS011;1581;51.568;6.998;2024-02-26T02:23:28;1.93;;;1.60;;
3141;SDS011;1581;51.568;6.998;2024-02-26T02:25:56;2.97;;;1.40;;
3141;SDS011;1581;51.568;6.998;2024-02-26T02:28:24;1.30;;;1.20;;
3141;SDS011;1581;51.568;6.998;2024-02-26T02:30:53;3.23;;;1.23;;
3141;SDS011;1581;51.568;6.998;2024-02-26T02:33:21;1.67;;;1.20;;
3141;SDS011;1581;51.568;6.998;2024-02-26T02:35:49;1.50;;;1.50;;
3141;SDS011;1581;51.568;6.998;2024-02-26T02:38:20;3.20;;;1.70;;
3141;SDS011;1581;51.568;6.998;2024-02-26T02:40:48;1.40;;;1.30;;
3141;SDS011;1581;51.568;6.998;2024-02-26T02:43:15;1.30;;;1.20;;
3141;SDS011;1581;51.568;6.998;2024-02-26T02:45:42;1.80;;;1.33;;
3141;SDS011;1581;51.568;6.998;2024-02-26T02:48:10;3.47;;;1.83;;
3141;SDS011;1581;51.568;6.998;2024-02-26T02:50:38;2.10;;;1.10;;
3141;SDS011;1581;51.568;6.998;2024-02-26T02:53:05;1.67;;;1.40;;
3141;SDS011;1581;51.568;6.998;2024-02-26T02:55:34;4.97;;;1.57;;
3141;SDS011;1581;51.568;6.998;2024-02-26T02:58:01;1.80;;;1.70;;
3141;SDS011;1581;51.568;6.998;2024-02-26T03:00:28;3.93;;;1.77;;
3141;SDS011;1581;51.568;6.998;2024-02-26T03:02:55;1.77;;;1.40;;
3141;SDS011;1581;51.568;6.998;2024-02-26T03:05:22;2.00;;;1.70;;
3141;SDS011;1581;51.568;6.998;2024-02-26T03:07:49;2.20;;;1.47;;
3141;SDS011;1581;51.568;6.998;2024-02-26T03:10:17;2.20;;;1.30;;
3141;SDS011;1581;51.568;6.998;2024-02-26T03:12:46;1.90;;;1.77;;
3141;SDS011;1581;51.568;6.998;2024-02-26T03:15:13;2.40;;;1.47;;
3141;SDS011;1581;51.568;6.998;2024-02-26T03:17:41;1.70;;;1.33;;
3141;SDS011;1581;51.568;6.998;2024-02-26T03:20:08;3.60;;;1.30;;
3141;SDS011;1581;51.568;6.998;2024-02-26T03:22:38;2.27;;;1.67;;
3141;SDS011;1581;51.568;6.998;2024-02-26T03:25:05;2.07;;;1.00;;
3141;SDS011;1581;51.568;6.998;2024-02-26T03:27:33;2.13;;;1.57;;
3141;SDS011;1581;51.568;6.998;2024-02-26T03:30:02;3.03;;;1.30;;
3141;SDS011;1581;51.568;6.998;2024-02-26T03:32:30;2.80;;;1.30;;
3141;SDS011;1581;51.568;6.998;2024-02-26T03:34:57;1.37;;;0.80;;
3141;SDS011;1581;51.568;6.998;2024-02-26T03:37:25;1.10;;;1.00;;
3141;SDS011;1581;51.568;6.998;2024-02-26T03:39:52;3.50;;;1.00;;
3141;SDS011;1581;51.568;6.998;2024-02-26T03:42:19;2.57;;;1.33;;
3141;SDS011;1581;51.568;6.998;2024-02-26T03:44:46;0.90;;;0.90;;
3141;SDS011;1581;51.568;6.998;2024-02-26T03:47:15;1.13;;;1.07;;
3141;SDS011;1581;51.568;6.998;2024-02-26T03:49:42;1.00;;;1.00;;
3141;SDS011;1581;51.568;6.998;2024-02-26T03:52:10;5.27;;;1.37;;
3141;SDS011;1581;51.568;6.998;2024-02-26T03:54:37;1.93;;;1.10;;
3141;SDS011;1581;51.568;6.998;2024-02-26T03:57:04;3.13;;;1.40;;
3141;SDS011;1581;51.568;6.998;2024-02-26T03:59:31;4.10;;;1.30;;
3141;SDS011;1581;51.568;6.998;2024-02-26T04:01:58;2.20;;;1.07;;
3141;SDS011;1581;51.568;6.998;2024-02-26T04:04:28;2.40;;;1.33;;
3141;SDS011;1581;51.568;6.998;2024-02-26T04:06:55;1.93;;;1.27;;
3141;SDS011;1581;51.568;6.998;2024-02-26T04:09:22;1.23;;;1.20;;
3141;SDS011;1581;51.568;6.998;2024-02-26T04:11:49;1.83;;;1.50;;
3141;SDS011;1581;51.568;6.998;2024-02-26T04:14:18;2.20;;;1.20;;
3141;SDS011;1581;51.568;6.998;2024-02-26T04:16:45;3.10;;;1.50;;
3141;SDS011;1581;51.568;6.998;2024-02-26T04:19:16;2.93;;;1.03;;
3141;SDS011;1581;51.568;6.998;2024-02-26T04:21:45;1.10;;;1.00;;
3141;SDS011;1581;51.568;6.998;2024-02-26T04:24:12;2.40;;;1.10;;
3141;SDS011;1581;51.568;6.998;2024-02-26T04:26:39;2.13;;;1.30;;
3141;SDS011;1581;51.568;6.998;2024-02-26T04:29:06;1.63;;;1.50;;
3141;SDS011;1581;51.568;6.998;2024-02-26T04:31:33;4.20;;;1.77;;
3141;SDS011;1581;51.568;6.998;2024-02-26T04:34:00;2.43;;;1.90;;
3141;SDS011;1581;51.568;6.998;2024-02-26T04:36:27;2.30;;;1.70;;
3141;SDS011;1581;51.568;6.998;2024-02-26T04:38:56;4.83;;;1.23;;
3141;SDS011;1581;51.568;6.998;2024-02-26T04:41:23;1.50;;;1.33;;
3141;SDS011;1581;51.568;6.998;2024-02-26T04:43:50;2.53;;;1.67;;
3141;SDS011;1581;51.568;6.998;2024-02-26T04:46:18;1.77;;;1.30;;
3141;SDS011;1581;51.568;6.998;2024-02-26T04:48:46;1.57;;;1.23;;
3141;SDS011;1581;51.568;6.998;2024-02-26T04:51:14;4.83;;;1.10;;
3141;SDS011;1581;51.568;6.998;2024-02-26T04:53:41;4.50;;;1.33;;
3141;SDS011;1581;51.568;6.998;2024-02-26T04:56:09;1.67;;;1.20;;
3141;SDS011;1581;51.568;6.998;2024-02-26T04:58:36;1.30;;;1.10;;
3141;SDS011;1581;51.568;6.998;2024-02-26T05:01:03;2.43;;;1.10;;
3141;SDS011;1581;51.568;6.998;2024-02-26T05:03:30;3.87;;;1.30;;
3141;SDS011;1581;51.568;6.998;2024-02-26T05:05:57;1.73;;;1.37;;
3141;SDS011;1581;51.568;6.998;2024-02-26T05:08:25;1.53;;;1.43;;
3141;SDS011;1581;51.568;6.998;2024-02-26T05:10:53;1.60;;;1.50;;
3141;SDS011;1581;51.568;6.998;2024-02-26T05:13:24;2.30;;;1.40;;
3141;SDS011;1581;51.568;6.998;2024-02-26T05:15:51;1.57;;;1.40;;
3141;SDS011;1581;51.568;6.998;2024-02-26T05:18:18;1.67;;;1.37;;
3141;SDS011;1581;51.568;6.998;2024-02-26T05:20:45;1.47;;;1.37;;
3141;SDS011;1581;51.568;6.998;2024-02-26T05:23:12;1.70;;;1.60;;
3141;SDS011;1581;51.568;6.998;2024-02-26T05:25:39;3.50;;;1.63;;
3141;SDS011;1581;51.568;6.998;2024-02-26T05:28:07;1.40;;;1.30;;
3141;SDS011;1581;51.568;6.998;2024-02-26T05:30:35;4.70;;;1.80;;
3141;SDS011;1581;51.568;6.998;2024-02-26T05:33:05;1.43;;;1.30;;
3141;SDS011;1581;51.568;6.998;2024-02-26T05:35:32;2.47;;;1.80;;
3141;SDS011;1581;51.568;6.998;2024-02-26T05:37:59;2.17;;;1.50;;
3141;SDS011;1581;51.568;6.998;2024-02-26T05:40:27;1.87;;;1.57;;
3141;SDS011;1581;51.568;6.998;2024-02-26T05:42:55;2.53;;;1.80;;
3141;SDS011;1581;51.568;6.998;2024-02-26T05:45:22;1.47;;;1.23;;
3141;SDS011;1581;51.568;6.998;2024-02-26T05:47:50;1.97;;;1.87;;
3141;SDS011;1581;51.568;6.998;2024-02-26T05:50:17;2.87;;;1.47;;
3141;SDS011;1581;51.568;6.998;2024-02-26T05:52:44;2.93;;;1.40;;
3141;SDS011;1581;51.568;6.998;2024-02-26T05:55:11;1.70;;;1.60;;
3141;SDS011;1581;51.568;6.998;2024-02-26T05:57:38;4.60;;;1.70;;
3141;SDS011;1581;51.568;6.998;2024-02-26T06:00:06;2.80;;;1.87;;
3141;SDS011;1581;51.568;6.998;2024-02-26T06:02:34;1.70;;;1.60;;
3141;SDS011;1581;51.568;6.998;2024-02-26T06:05:03;3.00;;;2.10;;
3141;SDS011;1581;51.568;6.998;2024-02-26T06:07:33;2.43;;;2.10;;
3141;SDS011;1581;51.568;6.998;2024-02-26T06:10:00;2.93;;;1.90;;
3141;SDS011;1581;51.568;6.998;2024-02-26T06:12:29;2.30;;;1.50;;
3141;SDS011;1581;51.568;6.998;2024-02-26T06:14:57;1.90;;;1.57;;
3141;SDS011;1581;51.568;6.998;2024-02-26T06:17:26;1.60;;;1.50;;
3141;SDS011;1581;51.568;6.998;2024-02-26T06:19:53;1.90;;;1.53;;
3141;SDS011;1581;51.568;6.998;2024-02-26T06:22:22;2.97;;;1.80;;
3141;SDS011;1581;51.568;6.998;2024-02-26T06:24:49;2.20;;;1.60;;
3141;SDS011;1581;51.568;6.998;2024-02-26T06:27:16;1.80;;;1.60;;
3141;SDS011;1581;51.568;6.998;2024-02-26T06:29:43;2.90;;;1.57;;
3141;SDS011;1581;51.568;6.998;2024-02-26T06:32:10;7.27;;;1.40;;
3141;SDS011;1581;51.568;6.998;2024-02-26T06:34:37;2.10;;;1.53;;
3141;SDS011;1581;51.568;6.998;2024-02-26T06:37:06;1.50;;;1.40;;
3141;SDS011;1581;51.568;6.998;2024-02-26T06:39:35;3.83;;;1.70;;
3141;SDS011;1581;51.568;6.998;2024-02-26T06:42:03;1.80;;;1.70;;
3141;SDS011;1581;51.568;6.998;2024-02-26T06:44:30;1.30;;;1.20;;
3141;SDS011;1581;51.568;6.998;2024-02-26T06:46:57;7.37;;;1.77;;
3141;SDS011;1581;51.568;6.998;2024-02-26T06:49:25;1.50;;;1.40;;
3141;SDS011;1581;51.568;6.998;2024-02-26T06:51:52;1.70;;;1.43;;
3141;SDS011;1581;51.568;6.998;2024-02-26T06:54:19;6.27;;;1.53;;
3141;SDS011;1581;51.568;6.998;2024-02-26T06:56:48;2.67;;;1.50;;
3141;SDS011;1581;51.568;6.998;2024-02-26T06:59:15;2.80;;;1.60;;
3141;SDS011;1581;51.568;6.998;2024-02-26T07:01:42;4.23;;;1.57;;
3141;SDS011;1581;51.568;6.998;2024-02-26T07:04:09;2.60;;;1.50;;
3141;SDS011;1581;51.568;6.998;2024-02-26T07:06:36;2.00;;;1.77;;
3141;SDS011;1581;51.568;6.998;2024-02-26T07:09:03;1.73;;;1.63;;
3141;SDS011;1581;51.568;6.998;2024-02-26T07:11:30;2.17;;;1.23;;
3141;SDS011;1581;51.568;6.998;2024-02-26T07:13:59;1.80;;;1.60;;
3141;SDS011;1581;51.568;6.998;2024-02-26T07:16:26;2.60;;;1.80;;
3141;SDS011;1581;51.568;6.998;2024-02-26T07:18:53;2.20;;;1.40;;
3141;SDS011;1581;51.568;6.998;2024-02-26T07:21:21;2.30;;;1.43;;
3141;SDS011;1581;51.568;6.998;2024-02-26T07:23:48;2.07;;;1.60;;
3141;SDS011;1581;51.568;6.998;2024-02-26T07:26:14;3.00;;;1.60;;
3141;SDS011;1581;51.568;6.998;2024-02-26T07:28:43;2.10;;;1.33;;
3141;SDS011;1581;51.568;6.998;2024-02-26T07:31:12;2.43;;;1.57;;
3141;SDS011;1581;51.568;6.998;2024-02-26T07:33:39;3.43;;;1.87;;
3141;SDS011;1581;51.568;6.998;2024-02-26T07:36:09;1.60;;;1.50;;
3141;SDS011;1581;51.568;6.998;2024-02-26T07:38:35;2.20;;;1.37;;
3141;SDS011;1581;51.568;6.998;2024-02-26T07:41:03;3.63;;;2.13;;
3141;SDS011;1581;51.568;6.998;2024-02-26T07:43:31;1.60;;;1.30;;
3141;SDS011;1581;51.568;6.998;2024-02-26T07:45:58;1.50;;;1.40;;
3141;SDS011;1581;51.568;6.998;2024-02-26T07:48:27;1.57;;;1.30;;
3141;SDS011;1581;51.568;6.998;2024-02-26T07:50:54;1.40;;;1.30;;
3141;SDS011;1581;51.568;6.998;2024-02-26T07:53:24;3.60;;;1.57;;
3141;SDS011;1581;51.568;6.998;2024-02-26T07:55:51;3.27;;;1.70;;
3141;SDS011;1581;51.568;6.998;2024-02-26T07:58:18;2.27;;;1.97;;
3141;SDS011;1581;51.568;6.998;2024-02-26T08:00:45;1.30;;;1.20;;
3141;SDS011;1581;51.568;6.998;2024-02-26T08:03:12;1.50;;;1.40;;
3141;SDS011;1581;51.568;6.998;2024-02-26T08:05:42;1.00;;;1.00;;
3141;SDS011;1581;51.568;6.998;2024-02-26T08:08:12;1.10;;;1.10;;
3141;SDS011;1581;51.568;6.998;2024-02-26T08:10:39;2.03;;;1.63;;
3141;SDS011;1581;51.568;6.998;2024-02-26T08:13:06;2.10;;;1.70;;
3141;SDS011;1581;51.568;6.998;2024-02-26T08:15:33;1.40;;;1.30;;
3141;SDS011;1581;51.568;6.998;2024-02-26T08:18:02;3.03;;;1.43;;
3141;SDS011;1581;51.568;6.998;2024-02-26T08:20:30;1.33;;;1.30;;
3141;SDS011;1581;51.568;6.998;2024-02-26T08:22:58;3.87;;;2.10;;
3141;SDS011;1581;51.568;6.998;2024-02-26T08:25:25;4.43;;;2.30;;
3141;SDS011;1581;51.568;6.998;2024-02-26T08:27:52;4.37;;;2.90;;
3141;SDS011;1581;51.568;6.998;2024-02-26T08:30:19;1.83;;;1.73;;
3141;SDS011;1581;51.568;6.998;2024-02-26T08:32:47;1.57;;;1.47;;
3141;SDS011;1581;51.568;6.998;2024-02-26T08:35:14;2.50;;;1.50;;
3141;SDS011;1581;51.568;6.998;2024-02-26T08:37:43;1.17;;;1.13;;
3141;SDS011;1581;51.568;6.998;2024-02-26T08:40:12;1.80;;;1.70;;
3141;SDS011;1581;51.568;6.998;2024-02-26T08:42:40;2.67;;;1.83;;
3141;SDS011;1581;51.568;6.998;2024-02-26T08:45:07;1.70;;;1.60;;
3141;SDS011;1581;51.568;6.998;2024-02-26T08:47:36;2.93;;;1.50;;
3141;SDS011;1581;51.568;6.998;2024-02-26T08:50:03;1.33;;;1.20;;
3141;SDS011;1581;51.568;6.998;2024-02-26T08:52:31;2.30;;;1.43;;
3141;SDS011;1581;51.568;6.998;2024-02-26T08:54:58;1.30;;;1.20;;
3141;SDS011;1581;51.568;6.998;2024-02-26T08:57:27;2.73;;;1.57;;
3141;SDS011;1581;51.568;6.998;2024-02-26T08:59:54;1.40;;;1.30;;
3141;SDS011;1581;51.568;6.998;2024-02-26T09:02:20;2.53;;;1.53;;
3141;SDS011;1581;51.568;6.998;2024-02-26T09:04:47;1.67;;;1.57;;
3141;SDS011;1581;51.568;6.998;2024-02-26T09:07:16;3.00;;;1.57;;
3141;SDS011;1581;51.568;6.998;2024-02-26T09:09:43;1.50;;;1.40;;
3141;SDS011;1581;51.568;6.998;2024-02-26T09:12:10;2.37;;;1.50;;
3141;SDS011;1581;51.568;6.998;2024-02-26T09:14:38;2.97;;;1.30;;
3141;SDS011;1581;51.568;6.998;2024-02-26T09:17:05;1.50;;;1.40;;
3141;SDS011;1581;51.568;6.998;2024-02-26T09:19:32;4.80;;;1.70;;
3141;SDS011;1581;51.568;6.998;2024-02-26T09:21:59;1.50;;;1.40;;
3141;SDS011;1581;51.568;6.998;2024-02-26T09:24:26;2.00;;;1.80;;
3141;SDS011;1581;51.568;6.998;2024-02-26T09:26:53;1.97;;;1.47;;
3141;SDS011;1581;51.568;6.998;2024-02-26T09:29:21;2.10;;;1.63;;
3141;SDS011;1581;51.568;6.998;2024-02-26T09:31:49;1.50;;;1.40;;
3141;SDS011;1581;51.568;6.998;2024-02-26T09:34:16;1.80;;;1.60;;
3141;SDS011;1581;51.568;6.998;2024-02-26T09:36:43;1.80;;;1.60;;
3141;SDS011;1581;51.568;6.998;2024-02-26T09:39:10;1.37;;;1.30;;
3141;SDS011;1581;51.568;6.998;2024-02-26T09:41:39;2.43;;;1.13;;
3141;SDS011;1581;51.568;6.998;2024-02-26T09:44:06;3.00;;;1.53;;
3141;SDS011;1581;51.568;6.998;2024-02-26T09:46:35;2.90;;;1.70;;
3141;SDS011;1581;51.568;6.998;2024-02-26T09:49:04;1.90;;;1.50;;
3141;SDS011;1581;51.568;6.998;2024-02-26T09:51:32;1.50;;;1.40;;
3141;SDS011;1581;51.568;6.998;2024-02-26T09:54:00;7.17;;;4.70;;
3141;SDS011;1581;51.568;6.998;2024-02-26T09:56:27;7.90;;;3.57;;
3141;SDS011;1581;51.568;6.998;2024-02-26T09:58:55;5.90;;;4.50;;
3141;SDS011;1581;51.568;6.998;2024-02-26T10:01:23;8.50;;;3.27;;
3141;SDS011;1581;51.568;6.998;2024-02-26T10:03:52;3.10;;;2.90;;
3141;SDS011;1581;51.568;6.998;2024-02-26T10:06:25;1.80;;;1.70;;
3141;SDS011;1581;51.568;6.998;2024-02-26T10:08:54;3.20;;;2.00;;
3141;SDS011;1581;51.568;6.998;2024-02-26T10:11:23;3.33;;;1.57;;
3141;SDS011;1581;51.568;6.998;2024-02-26T10:13:52;2.47;;;2.10;;
3141;SDS011;1581;51.568;6.998;2024-02-26T10:16:18;2.03;;;1.73;;
3141;SDS011;1581;51.568;6.998;2024-02-26T10:18:46;1.80;;;1.60;;
3141;SDS011;1581;51.568;6.998;2024-02-26T10:21:15;2.97;;;1.40;;
3141;SDS011;1581;51.568;6.998;2024-02-26T10:23:45;5.07;;;1.90;;
3141;SDS011;1581;51.568;6.998;2024-02-26T10:26:13;1.70;;;1.60;;
3141;SDS011;1581;51.568;6.998;2024-02-26T10:28:41;2.30;;;2.00;;
3141;SDS011;1581;51.568;6.998;2024-02-26T10:31:10;2.00;;;1.70;;
3141;SDS011;1581;51.568;6.998;2024-02-26T10:33:39;2.50;;;1.90;;
3141;SDS011;1581;51.568;6.998;2024-02-26T10:36:08;1.33;;;1.30;;
3141;SDS011;1581;51.568;6.998;2024-02-26T10:38:36;6.40;;;2.30;;
3141;SDS011;1581;51.568;6.998;2024-02-26T10:41:05;3.00;;;2.03;;
3141;SDS011;1581;51.568;6.998;2024-02-26T10:43:33;5.80;;;2.50;;
3141;SDS011;1581;51.568;6.998;2024-02-26T10:46:00;2.27;;;2.00;;
3141;SDS011;1581;51.568;6.998;2024-02-26T10:48:27;1.97;;;1.80;;
3141;SDS011;1581;51.568;6.998;2024-02-26T10:50:54;1.80;;;1.70;;
3141;SDS011;1581;51.568;6.998;2024-02-26T10:53:23;2.93;;;1.83;;
3141;SDS011;1581;51.568;6.998;2024-02-26T10:55:55;2.43;;;2.23;;
3141;SDS011;1581;51.568;6.998;2024-02-26T10:58:31;4.20;;;1.90;;
3141;SDS011;1581;51.568;6.998;2024-02-26T11:00:58;3.70;;;2.60;;
3141;SDS011;1581;51.568;6.998;2024-02-26T11:03:26;2.27;;;2.17;;
3141;SDS011;1581;51.568;6.998;2024-02-26T11:05:58;2.83;;;2.47;;
3141;SDS011;1581;51.568;6.998;2024-02-26T11:08:28;3.37;;;2.63;;
3141;SDS011;1581;51.568;6.998;2024-02-26T11:10:57;2.83;;;2.53;;
3141;SDS011;1581;51.568;6.998;2024-02-26T11:13:26;3.40;;;3.00;;
3141;SDS011;1581;51.568;6.998;2024-02-26T11:15:58;5.17;;;3.07;;
3141;SDS011;1581;51.568;6.998;2024-02-26T11:18:26;3.43;;;2.90;;
3141;SDS011;1581;51.568;6.998;2024-02-26T11:20:54;4.40;;;2.70;;
3141;SDS011;1581;51.568;6.998;2024-02-26T11:23:22;5.00;;;2.90;;
3141;SDS011;1581;51.568;6.998;2024-02-26T11:25:49;6.23;;;2.80;;
3141;SDS011;1581;51.568;6.998;2024-02-26T11:28:18;3.90;;;2.60;;
3141;SDS011;1581;51.568;6.998;2024-02-26T11:30:47;4.20;;;2.80;;
3141;SDS011;1581;51.568;6.998;2024-02-26T11:33:16;7.07;;;3.60;;
3141;SDS011;1581;51.568;6.998;2024-02-26T11:35:45;5.83;;;3.23;;
3141;SDS011;1581;51.568;6.998;2024-02-26T11:38:17;6.43;;;3.60;;
3141;SDS011;1581;51.568;6.998;2024-02-26T11:40:47;4.07;;;3.37;;
3141;SDS011;1581;51.568;6.998;2024-02-26T11:43:14;4.57;;;3.67;;
3141;SDS011;1581;51.568;6.998;2024-02-26T11:45:47;11.53;;;6.03;;
3141;SDS011;1581;51.568;6.998;2024-02-26T11:48:22;5.20;;;3.97;;
3141;SDS011;1581;51.568;6.998;2024-02-26T11:50:51;15.50;;;8.90;;
3141;SDS011;1581;51.568;6.998;2024-02-26T11:53:19;13.20;;;6.37;;
3141;SDS011;1581;51.568;6.998;2024-02-26T11:55:49;9.17;;;4.03;;
3141;SDS011;1581;51.568;6.998;2024-02-26T11:58:53;9.37;;;4.60;;
3141;SDS011;1581;51.568;6.998;2024-02-26T12:01:39;6.67;;;4.00;;
3141;SDS011;1581;51.568;6.998;2024-02-26T12:04:11;4.90;;;3.63;;
3141;SDS011;1581;51.568;6.998;2024-02-26T12:06:44;8.73;;;4.23;;
3141;SDS011;1581;51.568;6.998;2024-02-26T12:12:04;5.90;;;3.60;;
3141;SDS011;1581;51.568;6.998;2024-02-26T12:14:33;5.30;;;3.47;;
3141;SDS011;1581;51.568;6.998;2024-02-26T12:17:03;6.40;;;3.67;;
3141;SDS011;1581;51.568;6.998;2024-02-26T12:19:33;8.00;;;4.57;;
3141;SDS011;1581;51.568;6.998;2024-02-26T12:22:01;5.10;;;3.60;;
3141;SDS011;1581;51.568;6.998;2024-02-26T12:24:30;4.40;;;3.57;;
3141;SDS011;1581;51.568;6.998;2024-02-26T12:26:57;5.57;;;4.30;;
3141;SDS011;1581;51.568;6.998;2024-02-26T12:29:24;4.87;;;3.70;;
3141;SDS011;1581;51.568;6.998;2024-02-26T12:31:50;5.37;;;4.40;;
3141;SDS011;1581;51.568;6.998;2024-02-26T12:34:18;7.10;;;4.37;;
3141;SDS011;1581;51.568;6.998;2024-02-26T12:36:46;5.13;;;3.60;;
3141;SDS011;1581;51.568;6.998;2024-02-26T12:39:13;5.57;;;3.57;;
3141;SDS011;1581;51.568;6.998;2024-02-26T12:41:41;6.37;;;3.87;;
3141;SDS011;1581;51.568;6.998;2024-02-26T12:44:14;5.50;;;3.43;;
3141;SDS011;1581;51.568;6.998;2024-02-26T12:46:41;5.97;;;3.10;;
3141;SDS011;1581;51.568;6.998;2024-02-26T12:49:08;4.83;;;3.33;;
3141;SDS011;1581;51.568;6.998;2024-02-26T12:51:40;2.90;;;2.50;;
3141;SDS011;1581;51.568;6.998;2024-02-26T12:54:08;5.13;;;3.43;;
3141;SDS011;1581;51.568;6.998;2024-02-26T12:56:36;3.70;;;2.83;;
3141;SDS011;1581;51.568;6.998;2024-02-26T12:59:03;10.70;;;3.10;;
3141;SDS011;1581;51.568;6.998;2024-02-26T13:01:30;2.57;;;2.37;;
3141;SDS011;1581;51.568;6.998;2024-02-26T13:03:58;3.67;;;3.10;;
3141;SDS011;1581;51.568;6.998;2024-02-26T13:06:26;4.63;;;2.77;;
3141;SDS011;1581;51.568;6.998;2024-02-26T13:08:56;3.70;;;2.67;;
3141;SDS011;1581;51.568;6.998;2024-02-26T13:11:25;3.70;;;3.10;;
3141;SDS011;1581;51.568;6.998;2024-02-26T13:13:53;2.40;;;2.20;;
3141;SDS011;1581;51.568;6.998;2024-02-26T13:16:23;3.87;;;2.83;;
3141;SDS011;1581;51.568;6.998;2024-02-26T13:18:51;2.70;;;2.50;;
3141;SDS011;1581;51.568;6.998;2024-02-26T13:21:18;2.80;;;2.40;;
3141;SDS011;1581;51.568;6.998;2024-02-26T13:23:48;2.10;;;1.90;;
3141;SDS011;1581;51.568;6.998;2024-02-26T13:26:21;3.00;;;2.63;;
3141;SDS011;1581;51.568;6.998;2024-02-26T13:28:59;2.27;;;2.10;;
3141;SDS011;1581;51.568;6.998;2024-02-26T13:31:28;2.97;;;2.67;;
3141;SDS011;1581;51.568;6.998;2024-02-26T13:33:55;2.20;;;2.00;;
3141;SDS011;1581;51.568;6.998;2024-02-26T13:36:23;4.60;;;2.47;;
3141;SDS011;1581;51.568;6.998;2024-02-26T13:38:51;5.40;;;2.43;;
3141;SDS011;1581;51.568;6.998;2024-02-26T13:41:17;2.47;;;2.27;;
3141;SDS011;1581;51.568;6.998;2024-02-26T13:43:44;2.33;;;2.13;;
3141;SDS011;1581;51.568;6.998;2024-02-26T13:46:13;1.93;;;1.80;;
3141;SDS011;1581;51.568;6.998;2024-02-26T13:48:40;2.20;;;2.00;;
3141;SDS011;1581;51.568;6.998;2024-02-26T13:51:07;2.20;;;2.00;;
3141;SDS011;1581;51.568;6.998;2024-02-26T13:53:34;2.60;;;2.23;;
3141;SDS011;1581;51.568;6.998;2024-02-26T13:56:01;4.20;;;2.00;;
3141;SDS011;1581;51.568;6.998;2024-02-26T13:58:30;2.50;;;1.97;;
3141;SDS011;1581;51.568;6.998;2024-02-26T14:00:57;2.47;;;2.10;;
3141;SDS011;1581;51.568;6.998;2024-02-26T14:03:29;6.60;;;2.47;;
3141;SDS011;1581;51.568;6.998;2024-02-26T14:05:56;4.87;;;2.40;;
3141;SDS011;1581;51.568;6.998;2024-02-26T14:08:23;4.13;;;2.60;;
3141;SDS011;1581;51.568;6.998;2024-02-26T14:10:50;2.57;;;2.27;;
3141;SDS011;1581;51.568;6.998;2024-02-26T14:13:17;2.10;;;1.90;;
3141;SDS011;1581;51.568;6.998;2024-02-26T14:15:44;4.13;;;2.27;;
3141;SDS011;1581;51.568;6.998;2024-02-26T14:18:11;3.20;;;2.70;;
3141;SDS011;1581;51.568;6.998;2024-02-26T14:20:39;3.23;;;2.27;;
3141;SDS011;1581;51.568;6.998;2024-02-26T14:23:07;2.93;;;2.30;;
3141;SDS011;1581;51.568;6.998;2024-02-26T14:25:34;3.80;;;2.63;;
3141;SDS011;1581;51.568;6.998;2024-02-26T14:28:01;3.23;;;2.30;;
3141;SDS011;1581;51.568;6.998;2024-02-26T14:30:29;2.70;;;2.10;;
3141;SDS011;1581;51.568;6.998;2024-02-26T14:32:56;2.70;;;2.10;;
3141;SDS011;1581;51.568;6.998;2024-02-26T14:35:23;2.90;;;2.10;;
3141;SDS011;1581;51.568;6.998;2024-02-26T14:37:52;2.07;;;1.97;;
3141;SDS011;1581;51.568;6.998;2024-02-26T14:40:20;2.40;;;2.20;;
3141;SDS011;1581;51.568;6.998;2024-02-26T14:42:47;5.80;;;2.33;;
3141;SDS011;1581;51.568;6.998;2024-02-26T14:45:14;4.20;;;2.47;;
3141;SDS011;1581;51.568;6.998;2024-02-26T14:47:41;3.30;;;2.37;;
3141;SDS011;1581;51.568;6.998;2024-02-26T14:50:08;2.80;;;2.10;;
3141;SDS011;1581;51.568;6.998;2024-02-26T14:52:36;3.20;;;2.30;;
3141;SDS011;1581;51.568;6.998;2024-02-26T14:55:04;2.33;;;2.13;;
3141;SDS011;1581;51.568;6.998;2024-02-26T14:57:32;2.87;;;2.20;;
3141;SDS011;1581;51.568;6.998;2024-02-26T14:59:59;3.43;;;2.20;;
3141;SDS011;1581;51.568;6.998;2024-02-26T15:02:30;8.63;;;1.87;;
3141;SDS011;1581;51.568;6.998;2024-02-26T15:04:57;8.00;;;2.20;;
3141;SDS011;1581;51.568;6.998;2024-02-26T15:07:24;3.57;;;2.23;;
3141;SDS011;1581;51.568;6.998;2024-02-26T15:09:51;3.93;;;2.30;;
3141;SDS011;1581;51.568;6.998;2024-02-26T15:12:23;4.50;;;2.33;;
3141;SDS011;1581;51.568;6.998;2024-02-26T15:14:50;2.60;;;2.33;;
3141;SDS011;1581;51.568;6.998;2024-02-26T15:17:17;1.93;;;1.77;;
3141;SDS011;1581;51.568;6.998;2024-02-26T15:19:45;5.97;;;1.93;;
3141;SDS011;1581;51.568;6.998;2024-02-26T15:22:12;2.70;;;2.10;;